createdAt,value
2022-08-22T00:01:52.567Z,16.41
2022-08-22T00:07:41.164Z,16.37
2022-08-22T00:13:07.581Z,16.35
2022-08-22T00:18:29.553Z,16.23
2022-08-22T00:23:41.374Z,16.18
2022-08-22T00:29:05.154Z,16.21
2022-08-22T00:34:22.769Z,16.14
2022-08-22T00:39:45.201Z,15.99
2022-08-22T00:45:11.600Z,15.90
2022-08-22T00:50:54.954Z,15.86
2022-08-22T00:56:32.126Z,15.89
2022-08-22T01:01:41.556Z,15.92
2022-08-22T01:07:22.210Z,15.97
2022-08-22T01:13:02.768Z,15.95
2022-08-22T01:19:06.263Z,15.93
2022-08-22T01:25:17.830Z,15.91
2022-08-22T01:31:24.075Z,15.87
2022-08-22T01:37:01.793Z,15.79
2022-08-22T01:43:09.664Z,15.77
2022-08-22T01:48:22.579Z,15.79
2022-08-22T01:53:44.519Z,15.83
2022-08-22T01:59:10.930Z,15.87
2022-08-22T02:04:34.004Z,15.90
2022-08-22T02:10:14.218Z,15.95
2022-08-22T02:15:38.504Z,15.99
2022-08-22T02:21:10.408Z,15.98
2022-08-22T02:27:07.124Z,15.96
2022-08-22T02:32:35.612Z,15.97
2022-08-22T02:38:13.480Z,15.98
2022-08-22T02:43:27.965Z,15.96
2022-08-22T02:48:50.631Z,15.96
2022-08-22T02:54:10.837Z,15.99
2022-08-22T02:59:32.559Z,16.00
2022-08-22T03:04:41.236Z,16.04
2022-08-22T03:10:26.208Z,16.03
2022-08-22T03:16:00.633Z,16.04
2022-08-22T03:21:35.454Z,16.07
2022-08-22T03:26:52.141Z,16.08
2022-08-22T03:32:22.792Z,16.07
2022-08-22T03:37:37.887Z,16.07
2022-08-22T03:43:17.754Z,16.06
2022-08-22T03:48:35.686Z,16.06
2022-08-22T03:53:46.546Z,16.08
2022-08-22T03:59:42.524Z,16.10
2022-08-22T04:04:51.877Z,16.13
2022-08-22T04:10:52.494Z,16.16
2022-08-22T04:16:04.088Z,16.21
2022-08-22T04:21:52.928Z,16.26
2022-08-22T04:27:07.643Z,16.29
2022-08-22T04:32:34.450Z,16.32
2022-08-22T04:37:53.661Z,16.38
2022-08-22T04:43:08.639Z,16.45
2022-08-22T04:48:34.958Z,16.47
2022-08-22T04:54:09.072Z,16.52
2022-08-22T04:59:17.333Z,16.57
2022-08-22T05:04:34.882Z,16.63
2022-08-22T05:09:45.673Z,16.72
2022-08-22T05:14:59.316Z,16.83
2022-08-22T05:20:15.038Z,16.94
2022-08-22T05:25:25.733Z,16.98
2022-08-22T05:30:31.890Z,16.98
2022-08-22T05:35:50.136Z,17.01
2022-08-22T05:41:05.916Z,17.05
2022-08-22T05:46:41.854Z,17.16
2022-08-22T05:52:00.193Z,17.18
2022-08-22T05:57:32.078Z,17.20
2022-08-22T06:03:06.182Z,17.31
2022-08-22T06:08:26.846Z,17.26
2022-08-22T06:13:37.285Z,17.28
2022-08-22T06:18:46.126Z,17.31
2022-08-22T06:24:02.978Z,17.41
2022-08-22T06:29:09.583Z,17.42
2022-08-22T06:34:29.660Z,17.49
2022-08-22T06:39:45.394Z,17.55
2022-08-22T06:45:29.511Z,17.67
2022-08-22T06:50:40.665Z,17.78
2022-08-22T06:55:53.240Z,17.87
2022-08-22T07:01:11.944Z,17.82
2022-08-22T07:06:31.862Z,17.96
2022-08-22T07:11:39.982Z,18.11
2022-08-22T07:16:55.222Z,18.37
2022-08-22T07:22:10.309Z,18.64
2022-08-22T07:27:19.948Z,18.67
2022-08-22T07:33:24.912Z,18.67
2022-08-22T07:38:43.959Z,18.62
2022-08-22T07:43:54.410Z,18.67
2022-08-22T07:49:31.889Z,18.72
2022-08-22T07:54:47.316Z,18.90
2022-08-22T07:59:57.407Z,18.82
2022-08-22T08:05:01.154Z,18.99
2022-08-22T08:10:16.394Z,19.08
2022-08-22T08:15:24.458Z,19.31
2022-08-22T08:20:30.318Z,19.42
2022-08-22T08:26:02.539Z,19.52
2022-08-22T08:31:18.220Z,19.55
2022-08-22T08:36:59.912Z,19.69
2022-08-22T08:42:11.468Z,20.01
2022-08-22T08:47:35.406Z,20.23
2022-08-22T08:53:32.750Z,20.63
2022-08-22T08:59:24.076Z,21.06
2022-08-22T09:05:12.832Z,21.33
2022-08-22T09:11:00.439Z,21.33
2022-08-22T09:17:00.685Z,21.26
2022-08-22T09:22:50.306Z,21.57
2022-08-22T09:28:48.982Z,22.01
2022-08-22T09:34:28.874Z,21.79
2022-08-22T09:40:01.594Z,21.29
2022-08-22T09:45:07.282Z,21.03
2022-08-22T09:50:20.123Z,20.86
2022-08-22T09:55:45.325Z,20.87
2022-08-22T10:01:19.172Z,20.97
2022-08-22T10:06:31.154Z,21.15
2022-08-22T10:11:55.323Z,21.39
2022-08-22T10:17:24.137Z,21.66
2022-08-22T10:22:49.491Z,21.84
2022-08-22T10:28:02.534Z,21.83
2022-08-22T10:33:57.766Z,21.98
2022-08-22T10:39:10.893Z,22.14
2022-08-22T10:44:36.323Z,22.08
2022-08-22T10:50:10.767Z,22.45
2022-08-22T10:55:24.595Z,22.61
2022-08-22T11:00:50.528Z,22.45
2022-08-22T11:06:03.714Z,22.81
2022-08-22T11:11:24.659Z,23.24
2022-08-22T11:17:27.536Z,23.53
2022-08-22T11:22:34.598Z,23.56
2022-08-22T11:28:12.950Z,23.20
2022-08-22T11:33:53.220Z,23.37
2022-08-22T11:39:30.133Z,23.81
2022-08-22T11:44:50.073Z,23.58
2022-08-22T11:50:18.529Z,23.55
2022-08-22T11:55:37.422Z,23.51
2022-08-22T12:01:17.150Z,23.80
2022-08-22T12:07:03.160Z,23.72
2022-08-22T12:12:09.108Z,24.14
2022-08-22T12:17:55.485Z,23.68
2022-08-22T12:23:40.783Z,24.10
2022-08-22T12:29:19.152Z,24.92
2022-08-22T12:34:47.452Z,24.81
2022-08-22T12:40:20.184Z,24.45
2022-08-22T12:46:13.197Z,24.18
2022-08-22T12:51:50.602Z,24.40
2022-08-22T12:57:24.475Z,24.32
2022-08-22T13:02:33.997Z,24.34
2022-08-22T13:07:41.494Z,24.33
2022-08-22T13:12:56.020Z,24.51
2022-08-22T13:18:28.388Z,24.86
2022-08-22T13:23:43.776Z,24.82
2022-08-22T13:29:24.493Z,24.90
2022-08-22T13:34:43.621Z,24.67
2022-08-22T13:39:51.102Z,24.50
2022-08-22T13:44:59.911Z,24.39
2022-08-22T13:50:22.311Z,24.67
2022-08-22T13:55:48.959Z,25.03
2022-08-22T14:01:25.513Z,25.03
2022-08-22T14:06:46.686Z,24.73
2022-08-22T14:11:59.282Z,24.52
2022-08-22T14:17:03.405Z,24.27
2022-08-22T14:22:17.220Z,24.30
2022-08-22T14:27:50.069Z,24.36
2022-08-22T14:33:16.976Z,24.14
2022-08-22T14:38:37.876Z,23.98
2022-08-22T14:44:07.471Z,23.85
2022-08-22T14:49:19.403Z,23.91
2022-08-22T14:54:28.926Z,23.73
2022-08-22T14:59:47.059Z,23.69
2022-08-22T15:04:56.259Z,23.54
2022-08-22T15:10:21.582Z,23.49
2022-08-22T15:15:41.113Z,23.21
2022-08-22T15:21:24.125Z,23.21
2022-08-22T15:26:41.110Z,23.17
2022-08-22T15:31:46.774Z,23.27
2022-08-22T15:37:11.968Z,23.02
2022-08-22T15:42:27.019Z,23.00
2022-08-22T15:47:41.667Z,22.92
2022-08-22T15:53:24.093Z,22.95
2022-08-22T15:58:27.564Z,22.90
2022-08-22T16:03:36.502Z,22.87
2022-08-22T16:08:52.074Z,22.71
2022-08-22T16:14:43.265Z,22.71
2022-08-22T16:19:46.255Z,22.53
2022-08-22T16:25:00.162Z,22.41
2022-08-22T16:30:12.170Z,22.47
2022-08-22T16:36:32.453Z,22.44
2022-08-22T16:41:42.305Z,22.22
2022-08-22T16:46:48.646Z,22.10
2022-08-22T16:52:25.631Z,21.95
2022-08-22T16:58:10.081Z,21.89
2022-08-22T17:03:37.836Z,21.75
2022-08-22T17:08:46.632Z,21.68
2022-08-22T17:14:52.202Z,21.58
2022-08-22T17:20:26.279Z,21.33
2022-08-22T17:25:48.171Z,21.07
2022-08-22T17:31:20.489Z,20.86
2022-08-22T17:36:50.915Z,20.73
2022-08-22T17:42:56.596Z,20.53
2022-08-22T17:48:25.011Z,20.39
2022-08-22T17:53:46.747Z,20.24
2022-08-22T17:59:10.911Z,20.13
2022-08-22T18:04:29.548Z,20.02
2022-08-22T18:09:54.198Z,19.98
2022-08-22T18:15:08.887Z,19.93
2022-08-22T18:20:52.560Z,19.88
2022-08-22T18:26:27.077Z,19.82
2022-08-22T18:31:54.315Z,19.79
2022-08-22T18:37:18.062Z,19.76
2022-08-22T18:42:28.581Z,19.72
2022-08-22T18:47:35.044Z,19.60
2022-08-22T18:52:39.660Z,19.50
2022-08-22T18:58:12.994Z,19.46
2022-08-22T19:03:28.271Z,19.41
2022-08-22T19:09:08.685Z,19.37
2022-08-22T19:14:40.968Z,19.28
2022-08-22T19:20:14.682Z,19.21
2022-08-22T19:25:27.333Z,19.11
2022-08-22T19:31:14.945Z,19.07
2022-08-22T19:36:33.122Z,19.00
2022-08-22T19:41:58.153Z,18.91
2022-08-22T19:47:19.023Z,18.84
2022-08-22T19:52:58.583Z,18.78
2022-08-22T19:58:50.626Z,18.73
2022-08-22T20:04:05.499Z,18.73
2022-08-22T20:09:31.853Z,18.73
2022-08-22T20:14:40.151Z,18.73
2022-08-22T20:25:42.611Z,18.69
2022-08-22T20:30:47.952Z,18.72
2022-08-22T20:35:59.622Z,18.77
2022-08-22T20:41:22.956Z,18.81
2022-08-22T20:46:46.345Z,18.89
2022-08-22T20:52:05.724Z,18.99
2022-08-22T20:57:17.801Z,18.90
2022-08-22T21:02:45.105Z,18.79
2022-08-22T21:08:10.461Z,18.75
2022-08-22T21:13:21.324Z,18.77
2022-08-22T21:18:52.960Z,18.91
2022-08-22T21:24:07.825Z,19.01
2022-08-22T21:29:10.662Z,19.00
2022-08-22T21:34:30.308Z,18.93
2022-08-22T21:39:44.019Z,18.85
2022-08-22T21:45:00.879Z,18.73
2022-08-22T21:50:20.909Z,18.63
2022-08-22T21:55:28.053Z,18.57
2022-08-22T22:00:40.159Z,18.56
2022-08-22T22:05:59.366Z,18.61
2022-08-22T22:11:08.545Z,18.71
2022-08-22T22:16:12.856Z,18.81
2022-08-22T22:21:16.995Z,18.80
2022-08-22T22:26:21.464Z,18.62
2022-08-22T22:31:24.469Z,18.49
2022-08-22T22:36:27.938Z,18.49
2022-08-22T22:41:30.915Z,18.51
2022-08-22T22:46:33.951Z,18.49
2022-08-22T22:51:36.981Z,18.42
2022-08-22T22:56:39.983Z,18.36
2022-08-22T23:02:14.353Z,18.20
2022-08-22T23:07:18.564Z,18.05
2022-08-22T23:12:24.323Z,18.00
2022-08-22T23:17:28.552Z,17.96
2022-08-22T23:22:31.960Z,17.93
2022-08-22T23:27:35.621Z,17.91
2022-08-22T23:32:39.316Z,17.88
2022-08-22T23:37:42.403Z,17.88
2022-08-22T23:42:45.374Z,17.98
2022-08-22T23:47:49.188Z,18.10
2022-08-22T23:52:52.273Z,18.15
2022-08-22T23:57:55.380Z,18.17
